createdAt,value
2023-01-17T00:00:21.197Z,0.47
2023-01-17T00:01:21.057Z,0.49
2023-01-17T00:02:21.676Z,0.5
2023-01-17T00:03:21.048Z,0.47
2023-01-17T00:04:21.096Z,0.46
2023-01-17T00:05:21.070Z,0.46
2023-01-17T00:06:21.890Z,0.47
2023-01-17T00:07:21.980Z,0.5
2023-01-17T00:08:21.157Z,0.48
2023-01-17T00:09:21.290Z,0.5
2023-01-17T00:10:22.935Z,0.47
2023-01-17T00:11:21.159Z,0.47
2023-01-17T00:12:21.652Z,0.49
2023-01-17T00:13:21.234Z,0.53
2023-01-17T00:14:21.276Z,0.49
2023-01-17T00:15:21.850Z,0.49
2023-01-17T00:16:21.387Z,0.42
2023-01-17T00:17:22.472Z,0.44
2023-01-17T00:18:21.408Z,0.49
2023-01-17T00:19:21.536Z,0.47
2023-01-17T00:20:22.694Z,0.48
2023-01-17T00:21:21.307Z,0.46
2023-01-17T00:22:25.923Z,0.46
2023-01-17T00:23:23.880Z,0.48
2023-01-17T00:24:22.563Z,0.45
2023-01-17T00:25:32.463Z,0.45
2023-01-17T00:26:24.136Z,0.46
2023-01-17T00:27:24.162Z,0.46
2023-01-17T00:28:24.980Z,0.44
2023-01-17T00:29:24.286Z,0.46
2023-01-17T00:30:24.311Z,0.48
2023-01-17T00:31:24.316Z,0.41
2023-01-17T00:32:24.197Z,0.42
2023-01-17T00:33:24.623Z,0.42
2023-01-17T00:34:24.258Z,0.43
2023-01-17T00:35:25.675Z,0.42
2023-01-17T00:36:24.244Z,0.46
2023-01-17T00:37:24.264Z,0.46
2023-01-17T00:38:25.748Z,0.43
2023-01-17T00:39:24.301Z,0.44
2023-01-17T00:40:24.381Z,0.45
2023-01-17T00:41:24.388Z,0.43
2023-01-17T00:42:24.376Z,0.49
2023-01-17T00:43:24.413Z,0.44
2023-01-17T00:44:24.534Z,0.37
2023-01-17T00:45:24.373Z,0.39
2023-01-17T00:46:24.439Z,0.41
2023-01-17T00:47:24.435Z,0.41
2023-01-17T00:48:24.498Z,0.42
2023-01-17T00:49:24.487Z,0.4
2023-01-17T00:50:24.487Z,0.38
2023-01-17T00:51:24.969Z,0.38
2023-01-17T00:52:24.499Z,0.45
2023-01-17T00:53:24.477Z,0.38
2023-01-17T00:54:25.466Z,0.42
2023-01-17T00:55:24.530Z,0.41
2023-01-17T00:56:24.564Z,0.39
2023-01-17T00:57:24.539Z,0.4
2023-01-17T00:58:24.673Z,0.36
2023-01-17T00:59:24.598Z,0.37
2023-01-17T01:00:24.676Z,0.43
2023-01-17T01:01:24.754Z,0.41
2023-01-17T01:02:27.662Z,0.36
2023-01-17T01:03:25.125Z,0.35
2023-01-17T01:04:25.152Z,0.38
2023-01-17T01:05:25.174Z,0.36
2023-01-17T01:06:25.156Z,0.38
2023-01-17T01:07:25.167Z,0.36
2023-01-17T01:08:29.177Z,0.39
2023-01-17T01:09:25.824Z,0.34
2023-01-17T01:10:25.937Z,0.36
2023-01-17T01:11:25.793Z,0.36
2023-01-17T01:12:25.879Z,0.35
2023-01-17T01:13:26.352Z,0.34
2023-01-17T01:14:25.851Z,0.35
2023-01-17T01:15:25.910Z,0.32
2023-01-17T01:16:25.964Z,0.31
2023-01-17T01:17:25.917Z,0.3
2023-01-17T01:18:26.037Z,0.31
2023-01-17T01:19:26.200Z,0.28
2023-01-17T01:20:26.018Z,0.29
2023-01-17T01:21:25.966Z,0.28
2023-01-17T01:22:26.047Z,0.26
2023-01-17T01:23:26.109Z,0.27
2023-01-17T01:24:26.056Z,0.29
2023-01-17T01:25:26.085Z,0.26
2023-01-17T01:26:26.045Z,0.23
2023-01-17T01:27:26.098Z,0.23
2023-01-17T01:28:26.089Z,0.23
2023-01-17T01:29:26.196Z,0.18
2023-01-17T01:30:26.232Z,0.19
2023-01-17T01:31:26.204Z,0.19
2023-01-17T01:32:26.154Z,0.21
2023-01-17T01:33:26.140Z,0.21
2023-01-17T01:34:26.188Z,0.2
2023-01-17T01:35:26.282Z,0.14
2023-01-17T01:36:26.302Z,0.14
2023-01-17T01:37:26.249Z,0.14
2023-01-17T01:38:31.611Z,0.12
2023-01-17T01:39:28.317Z,0.16
2023-01-17T01:40:28.573Z,0.16
2023-01-17T01:41:28.343Z,0.12
2023-01-17T01:42:28.344Z,0.16
2023-01-17T01:45:36.627Z,0.11
2023-01-17T01:46:39.150Z,0.07
2023-01-17T01:47:38.386Z,0.12
2023-01-17T01:48:39.370Z,0.12
2023-01-17T01:49:36.625Z,0.06
2023-01-17T01:50:36.837Z,0.07
2023-01-17T01:51:39.641Z,0.07
2023-01-17T01:52:39.102Z,0.06
2023-01-17T01:53:38.459Z,0.07
2023-01-17T01:54:42.678Z,0.02
2023-01-17T01:55:40.926Z,0.06
2023-01-17T01:56:39.315Z,0.02
2023-01-17T01:57:40.713Z,-0.03
2023-01-17T01:58:40.399Z,-0.01
2023-01-17T01:59:41.479Z,-0.02
2023-01-17T02:00:40.357Z,-0.03
2023-01-17T02:01:39.327Z,-0.07
2023-01-17T02:02:39.265Z,-0.08
2023-01-17T02:03:40.648Z,-0.09
2023-01-17T02:04:39.518Z,-0.09
2023-01-17T02:05:39.803Z,-0.1
2023-01-17T02:06:44.557Z,-0.06
2023-01-17T02:07:47.896Z,-0.1
2023-01-17T02:08:44.324Z,-0.09
2023-01-17T02:09:44.511Z,-0.13
2023-01-17T02:10:44.665Z,-0.14
2023-01-17T02:11:45.710Z,-0.17
2023-01-17T02:12:44.748Z,-0.17
2023-01-17T02:13:44.214Z,-0.13
2023-01-17T02:14:44.247Z,-0.18
2023-01-17T02:22:18.621Z,-0.15
2023-01-17T02:24:27.435Z,-0.19
2023-01-17T02:30:32.731Z,-0.24
2023-01-17T02:31:41.922Z,-0.26
2023-01-17T02:32:45.693Z,-0.24
2023-01-17T02:33:47.795Z,-0.25
2023-01-17T02:35:51.639Z,-0.27
2023-01-17T02:36:51.581Z,-0.27
2023-01-17T02:40:04.809Z,-0.25
2023-01-17T02:41:06.556Z,-0.27
2023-01-17T02:42:01.942Z,-0.27
2023-01-17T02:43:01.233Z,-0.28
2023-01-17T02:43:58.602Z,-0.28
2023-01-17T02:44:58.631Z,-0.3
2023-01-17T02:45:58.700Z,-0.28
2023-01-17T02:46:58.629Z,-0.32
2023-01-17T02:47:58.746Z,-0.31
2023-01-17T02:48:59.279Z,-0.31
2023-01-17T02:50:04.301Z,-0.27
2023-01-17T02:51:06.443Z,-0.32
2023-01-17T03:02:35.664Z,-0.39
2023-01-17T03:03:45.321Z,-0.41
2023-01-17T03:07:45.255Z,-0.4
2023-01-17T03:08:47.036Z,-0.41
2023-01-17T03:09:46.410Z,-0.44
2023-01-17T03:10:45.491Z,-0.44
2023-01-17T03:11:45.275Z,-0.46
2023-01-17T03:12:45.705Z,-0.46
2023-01-17T03:13:45.243Z,-0.48
2023-01-17T03:14:45.258Z,-0.48
2023-01-17T03:15:45.363Z,-0.46
2023-01-17T03:16:45.405Z,-0.45
2023-01-17T03:17:47.592Z,-0.44
2023-01-17T03:18:45.370Z,-0.45
2023-01-17T03:19:45.346Z,-0.42
2023-01-17T03:20:45.348Z,-0.45
2023-01-17T03:21:45.366Z,-0.43
2023-01-17T03:22:45.414Z,-0.41
2023-01-17T03:23:45.449Z,-0.4
2023-01-17T03:24:45.403Z,-0.43
2023-01-17T03:25:45.459Z,-0.46
2023-01-17T03:26:45.442Z,-0.46
2023-01-17T03:27:45.591Z,-0.46
2023-01-17T03:28:45.595Z,-0.45
2023-01-17T03:29:45.617Z,-0.47
2023-01-17T03:30:45.583Z,-0.44
2023-01-17T03:31:45.567Z,-0.45
2023-01-17T03:32:45.554Z,-0.44
2023-01-17T03:33:45.923Z,-0.46
2023-01-17T03:34:45.598Z,-0.48
2023-01-17T03:35:45.952Z,-0.47
2023-01-17T03:36:45.613Z,-0.48
2023-01-17T03:37:45.635Z,-0.47
2023-01-17T03:38:45.659Z,-0.46
2023-01-17T03:39:45.695Z,-0.46
2023-01-17T03:40:45.714Z,-0.45
2023-01-17T03:41:45.699Z,-0.47
2023-01-17T03:42:45.719Z,-0.47
2023-01-17T03:43:45.711Z,-0.49
2023-01-17T03:44:45.783Z,-0.48
2023-01-17T03:45:48.572Z,-0.49
2023-01-17T03:46:45.786Z,-0.47
2023-01-17T03:47:45.813Z,-0.49
2023-01-17T03:48:45.846Z,-0.5
2023-01-17T03:49:45.840Z,-0.51
2023-01-17T03:50:49.513Z,-0.49
2023-01-17T03:51:45.869Z,-0.49
2023-01-17T03:52:45.888Z,-0.52
2023-01-17T03:53:46.053Z,-0.5
2023-01-17T03:54:45.933Z,-0.5
2023-01-17T03:55:46.469Z,-0.43
2023-01-17T03:56:45.943Z,-0.46
2023-01-17T03:57:45.939Z,-0.47
2023-01-17T03:58:45.954Z,-0.51
2023-01-17T03:59:46.351Z,-0.54
2023-01-17T04:00:46.097Z,-0.53
2023-01-17T04:01:46.204Z,-0.54
2023-01-17T04:02:46.076Z,-0.51
2023-01-17T04:03:46.039Z,-0.5
2023-01-17T04:04:46.065Z,-0.55
2023-01-17T04:05:46.103Z,-0.51
2023-01-17T04:06:46.082Z,-0.5
2023-01-17T04:07:46.100Z,-0.53
2023-01-17T04:08:46.153Z,-0.54
2023-01-17T04:09:46.161Z,-0.52
2023-01-17T04:10:46.169Z,-0.52
2023-01-17T04:11:46.338Z,-0.51
2023-01-17T04:12:46.210Z,-0.5
2023-01-17T04:13:46.204Z,-0.53
2023-01-17T04:14:46.284Z,-0.56
2023-01-17T04:15:47.127Z,-0.53
2023-01-17T04:16:46.382Z,-0.56
2023-01-17T04:17:46.287Z,-0.52
2023-01-17T04:18:46.285Z,-0.53
2023-01-17T04:19:46.439Z,-0.5
2023-01-17T04:20:46.745Z,-0.54
2023-01-17T04:21:46.408Z,-0.52
2023-01-17T04:22:46.345Z,-0.52
2023-01-17T04:23:46.361Z,-0.54
2023-01-17T04:24:46.387Z,-0.53
2023-01-17T04:25:46.386Z,-0.56
2023-01-17T04:26:47.343Z,-0.56
2023-01-17T04:27:46.423Z,-0.56
2023-01-17T04:28:46.458Z,-0.54
2023-01-17T04:29:46.906Z,-0.57
2023-01-17T04:30:46.665Z,-0.55
2023-01-17T04:31:46.543Z,-0.56
2023-01-17T04:32:46.694Z,-0.58
2023-01-17T04:33:46.540Z,-0.57
2023-01-17T04:34:46.567Z,-0.52
2023-01-17T04:35:46.569Z,-0.55
2023-01-17T04:36:46.584Z,-0.54
2023-01-17T04:37:46.591Z,-0.59
2023-01-17T04:38:46.663Z,-0.59
2023-01-17T04:39:46.674Z,-0.58
2023-01-17T04:40:46.682Z,-0.58
2023-01-17T04:41:46.676Z,-0.61
2023-01-17T04:42:47.459Z,-0.64
2023-01-17T04:43:46.711Z,-0.64
2023-01-17T04:44:46.764Z,-0.62
2023-01-17T04:45:46.797Z,-0.63
2023-01-17T04:46:46.749Z,-0.63
2023-01-17T04:47:46.774Z,-0.61
2023-01-17T04:48:46.763Z,-0.6
2023-01-17T04:49:46.800Z,-0.62
2023-01-17T04:50:46.820Z,-0.62
2023-01-17T04:51:46.828Z,-0.64
2023-01-17T04:52:46.846Z,-0.63
2023-01-17T04:53:46.884Z,-0.61
2023-01-17T04:54:47.396Z,-0.61
2023-01-17T04:55:46.874Z,-0.63
2023-01-17T04:56:46.917Z,-0.67
2023-01-17T04:57:47.542Z,-0.68
2023-01-17T04:58:46.972Z,-0.69
2023-01-17T04:59:47.920Z,-0.71
2023-01-17T05:00:47.495Z,-0.68
2023-01-17T05:01:48.001Z,-0.74
2023-01-17T05:02:47.510Z,-0.71
2023-01-17T05:03:47.853Z,-0.73
2023-01-17T05:04:47.788Z,-0.72
2023-01-17T05:05:48.026Z,-0.74
2023-01-17T05:06:47.509Z,-0.74
2023-01-17T05:07:56.885Z,-0.73
2023-01-17T05:08:48.093Z,-0.7
2023-01-17T05:09:48.092Z,-0.71
2023-01-17T05:10:48.158Z,-0.72
2023-01-17T05:11:48.202Z,-0.72
2023-01-17T05:12:55.195Z,-0.72
2023-01-17T05:13:51.409Z,-0.71
2023-01-17T05:14:51.435Z,-0.66
2023-01-17T05:15:51.661Z,-0.69
2023-01-17T05:16:57.994Z,-0.77
2023-01-17T05:17:54.710Z,-0.77
2023-01-17T05:18:54.392Z,-0.76
2023-01-17T05:19:54.240Z,-0.73
2023-01-17T05:20:54.292Z,-0.73
2023-01-17T05:21:54.337Z,-0.72
2023-01-17T05:22:55.264Z,-0.73
2023-01-17T05:23:54.288Z,-0.72
2023-01-17T05:24:54.316Z,-0.71
2023-01-17T05:25:54.374Z,-0.72
2023-01-17T05:26:54.382Z,-0.72
2023-01-17T05:27:54.584Z,-0.74
2023-01-17T05:28:54.396Z,-0.72
2023-01-17T05:29:54.611Z,-0.7
2023-01-17T05:30:54.569Z,-0.71
2023-01-17T05:31:54.492Z,-0.67
2023-01-17T05:32:55.575Z,-0.69
2023-01-17T05:33:54.492Z,-0.69
2023-01-17T05:34:54.495Z,-0.74
2023-01-17T05:35:54.531Z,-0.7
2023-01-17T05:36:54.779Z,-0.72
2023-01-17T05:37:54.760Z,-0.75
2023-01-17T05:38:54.568Z,-0.73
2023-01-17T05:39:54.585Z,-0.71
2023-01-17T05:40:54.621Z,-0.76
2023-01-17T05:41:54.600Z,-0.73
2023-01-17T05:42:55.768Z,-0.76
2023-01-17T05:43:54.629Z,-0.73
2023-01-17T05:44:54.640Z,-0.77
2023-01-17T05:45:54.885Z,-0.73
2023-01-17T05:46:55.323Z,-0.78
2023-01-17T05:47:55.881Z,-0.78
2023-01-17T05:48:54.712Z,-0.78
2023-01-17T05:49:54.756Z,-0.76
2023-01-17T05:50:54.793Z,-0.78
2023-01-17T05:51:55.044Z,-0.81
2023-01-17T05:52:58.798Z,-0.8
2023-01-17T05:53:55.025Z,-0.82
2023-01-17T05:54:55.047Z,-0.81
2023-01-17T05:55:55.683Z,-0.82
2023-01-17T05:56:55.724Z,-0.82
2023-01-17T05:57:55.738Z,-0.8
2023-01-17T05:58:55.704Z,-0.79
2023-01-17T05:59:55.670Z,-0.76
2023-01-17T06:00:55.803Z,-0.84
2023-01-17T06:01:55.730Z,-0.81
2023-01-17T06:02:56.417Z,-0.8
2023-01-17T06:03:55.836Z,-0.8
2023-01-17T06:04:55.751Z,-0.79
2023-01-17T06:05:55.752Z,-0.82
2023-01-17T06:06:55.746Z,-0.83
2023-01-17T06:07:55.851Z,-0.82
2023-01-17T06:08:55.838Z,-0.82
2023-01-17T06:09:55.806Z,-0.75
2023-01-17T06:10:58.107Z,-0.76
2023-01-17T06:11:55.824Z,-0.76
2023-01-17T06:13:03.094Z,-0.78
2023-01-17T06:13:59.425Z,-0.77
2023-01-17T06:14:59.314Z,-0.78
2023-01-17T06:16:01.225Z,-0.79
2023-01-17T06:16:59.344Z,-0.78
2023-01-17T06:18:03.310Z,-0.77
2023-01-17T06:18:59.594Z,-0.76
2023-01-17T06:19:59.538Z,-0.74
2023-01-17T06:20:59.627Z,-0.76
2023-01-17T06:21:59.791Z,-0.75
2023-01-17T06:23:00.266Z,-0.75
2023-01-17T06:23:59.574Z,-0.78
2023-01-17T06:24:59.626Z,-0.73
2023-01-17T06:26:02.051Z,-0.72
2023-01-17T06:27:00.228Z,-0.76
2023-01-17T06:28:01.305Z,-0.77
2023-01-17T06:29:00.940Z,-0.74
2023-01-17T06:29:59.837Z,-0.72
2023-01-17T06:31:04.803Z,-0.73
2023-01-17T06:32:01.796Z,-0.74
2023-01-17T06:33:01.145Z,-0.75
2023-01-17T06:34:04.253Z,-0.75
2023-01-17T06:35:01.047Z,-0.74
2023-01-17T06:36:01.391Z,-0.72
2023-01-17T06:37:01.132Z,-0.71
2023-01-17T06:38:01.132Z,-0.71
2023-01-17T06:39:01.105Z,-0.73
2023-01-17T06:40:01.159Z,-0.71
2023-01-17T06:41:03.888Z,-0.72
2023-01-17T06:42:01.259Z,-0.7
2023-01-17T06:43:04.956Z,-0.67
2023-01-17T06:44:01.174Z,-0.7
2023-01-17T06:45:01.185Z,-0.69
2023-01-17T06:46:01.276Z,-0.69
2023-01-17T06:47:01.621Z,-0.69
2023-01-17T06:48:02.001Z,-0.73
2023-01-17T06:49:01.478Z,-0.72
2023-01-17T06:50:01.265Z,-0.74
2023-01-17T06:51:01.260Z,-0.72
2023-01-17T06:52:01.302Z,-0.73
2023-01-17T06:53:02.634Z,-0.75
2023-01-17T06:54:01.316Z,-0.75
2023-01-17T06:55:01.557Z,-0.72
2023-01-17T06:56:01.498Z,-0.76
2023-01-17T06:57:01.634Z,-0.74
2023-01-17T06:58:01.807Z,-0.73
2023-01-17T06:59:01.653Z,-0.74
2023-01-17T07:00:01.624Z,-0.76
2023-01-17T07:01:08.580Z,-0.76
2023-01-17T07:02:04.941Z,-0.75
2023-01-17T07:03:04.840Z,-0.77
2023-01-17T07:04:04.909Z,-0.74
2023-01-17T07:05:05.449Z,-0.77
2023-01-17T07:06:05.405Z,-0.77
2023-01-17T07:07:06.137Z,-0.78
2023-01-17T07:08:04.897Z,-0.77
2023-01-17T07:09:04.937Z,-0.76
2023-01-17T07:10:05.340Z,-0.76
2023-01-17T07:11:06.559Z,-0.72
2023-01-17T07:12:05.163Z,-0.71
2023-01-17T07:13:04.962Z,-0.74
2023-01-17T07:14:04.982Z,-0.74
2023-01-17T07:15:05.665Z,-0.73
2023-01-17T07:16:05.927Z,-0.74
2023-01-17T07:17:05.167Z,-0.75
2023-01-17T07:18:05.484Z,-0.75
2023-01-17T07:19:05.257Z,-0.71
2023-01-17T07:20:06.030Z,-0.71
2023-01-17T07:21:05.379Z,-0.66
2023-01-17T07:22:05.077Z,-0.7
2023-01-17T07:23:05.290Z,-0.74
2023-01-17T07:24:05.613Z,-0.63
2023-01-17T07:25:05.571Z,-0.7
2023-01-17T07:26:05.289Z,-0.7
2023-01-17T07:27:07.068Z,-0.72
2023-01-17T07:28:05.198Z,-0.75
2023-01-17T07:29:05.394Z,-0.72
2023-01-17T07:30:06.744Z,-0.72
2023-01-17T07:31:06.529Z,-0.73
2023-01-17T07:32:05.251Z,-0.75
2023-01-17T07:33:05.301Z,-0.75
2023-01-17T07:34:05.279Z,-0.75
2023-01-17T07:35:05.794Z,-0.7
2023-01-17T07:36:06.327Z,-0.71
2023-01-17T07:37:05.327Z,-0.61
2023-01-17T07:38:05.382Z,-0.64
2023-01-17T07:39:06.390Z,-0.71
2023-01-17T07:40:05.858Z,-0.73
2023-01-17T07:41:05.504Z,-0.57
2023-01-17T07:42:05.358Z,-0.77
2023-01-17T07:43:06.158Z,-0.72
2023-01-17T07:44:05.367Z,-0.65
2023-01-17T07:45:06.132Z,-0.71
2023-01-17T07:46:05.999Z,-0.74
2023-01-17T07:47:05.497Z,-0.75
2023-01-17T07:48:05.680Z,-0.77
2023-01-17T07:49:05.719Z,-0.68
2023-01-17T07:50:05.785Z,-0.75
2023-01-17T07:51:05.682Z,-0.78
2023-01-17T07:52:08.859Z,-0.74
2023-01-17T07:53:05.762Z,-0.75
2023-01-17T07:54:05.550Z,-0.78
2023-01-17T07:55:06.031Z,-0.79
2023-01-17T07:56:06.746Z,-0.74
2023-01-17T07:57:05.554Z,-0.71
2023-01-17T07:58:05.604Z,-0.73
2023-01-17T07:59:06.047Z,-0.66
2023-01-17T08:00:06.212Z,-0.77
2023-01-17T08:01:07.435Z,-0.74
2023-01-17T08:02:05.873Z,-0.78
2023-01-17T08:03:05.626Z,-0.75
2023-01-17T08:04:05.729Z,-0.75
2023-01-17T08:05:05.891Z,-0.78
2023-01-17T08:06:06.707Z,-0.78
2023-01-17T08:07:05.691Z,-0.8
2023-01-17T08:08:05.671Z,-0.77
2023-01-17T08:09:05.983Z,-0.8
2023-01-17T08:10:06.201Z,-0.78
2023-01-17T08:11:05.693Z,-0.77
2023-01-17T08:12:05.995Z,-0.75
2023-01-17T08:13:05.795Z,-0.77
2023-01-17T08:14:05.797Z,-0.77
2023-01-17T08:15:06.362Z,-0.76
2023-01-17T08:16:06.271Z,-0.74
2023-01-17T08:17:13.640Z,-0.78
2023-01-17T08:18:09.870Z,-0.79
2023-01-17T08:19:10.016Z,-0.75
2023-01-17T08:20:10.278Z,-0.73
2023-01-17T08:21:14.433Z,-0.82
2023-01-17T08:22:10.829Z,-0.81
2023-01-17T08:23:11.210Z,-0.82
2023-01-17T08:24:11.982Z,-0.82
2023-01-17T08:25:11.245Z,-0.82
2023-01-17T08:26:10.700Z,-0.82
2023-01-17T08:27:10.715Z,-0.74
2023-01-17T08:28:10.738Z,-0.76
2023-01-17T08:29:10.728Z,-0.77
2023-01-17T08:30:11.367Z,-0.79
2023-01-17T08:31:10.892Z,-0.61
2023-01-17T08:32:10.779Z,-0.74
2023-01-17T08:33:10.796Z,-0.71
2023-01-17T08:34:10.809Z,-0.77
2023-01-17T08:35:10.850Z,-0.71
2023-01-17T08:36:10.881Z,-0.7
2023-01-17T08:37:10.814Z,-0.74
2023-01-17T08:38:10.848Z,-0.63
2023-01-17T08:39:10.862Z,-0.58
2023-01-17T08:40:11.462Z,-0.63
2023-01-17T08:41:11.121Z,-0.68
2023-01-17T08:42:10.918Z,-0.62
2023-01-17T08:43:10.963Z,-0.63
2023-01-17T08:44:10.921Z,-0.69
2023-01-17T08:45:12.081Z,-0.7
2023-01-17T08:46:11.550Z,-0.72
2023-01-17T08:47:11.544Z,-0.68
2023-01-17T08:48:11.472Z,-0.63
2023-01-17T08:49:11.758Z,-0.67
2023-01-17T08:50:12.275Z,-0.63
2023-01-17T08:51:13.712Z,-0.63
2023-01-17T08:52:13.302Z,-0.66
2023-01-17T08:53:13.261Z,-0.67
2023-01-17T08:54:13.375Z,-0.67
2023-01-17T08:55:13.352Z,-0.67
2023-01-17T08:56:13.528Z,-0.65
2023-01-17T08:57:13.327Z,-0.65
2023-01-17T08:58:13.367Z,-0.65
2023-01-17T08:59:13.402Z,-0.64
2023-01-17T09:00:13.725Z,-0.66
2023-01-17T09:01:13.526Z,-0.62
2023-01-17T09:02:16.929Z,-0.63
2023-01-17T09:03:14.558Z,-0.65
2023-01-17T09:04:13.926Z,-0.68
2023-01-17T09:05:13.482Z,-0.64
2023-01-17T09:06:14.388Z,-0.64
2023-01-17T09:07:13.903Z,-0.65
2023-01-17T09:08:13.507Z,-0.66
2023-01-17T09:09:15.643Z,-0.66
2023-01-17T09:10:13.565Z,-0.66
2023-01-17T09:11:14.964Z,-0.67
2023-01-17T09:12:13.519Z,-0.65
2023-01-17T09:13:13.686Z,-0.66
2023-01-17T09:14:13.988Z,-0.64
2023-01-17T09:15:13.592Z,-0.65
2023-01-17T09:16:13.736Z,-0.62
2023-01-17T09:17:14.640Z,-0.66
2023-01-17T09:18:13.616Z,-0.67
2023-01-17T09:19:13.609Z,-0.66
2023-01-17T09:20:13.959Z,-0.66
2023-01-17T09:21:17.336Z,-0.6
2023-01-17T09:22:13.778Z,-0.63
2023-01-17T09:23:13.852Z,-0.64
2023-01-17T09:24:13.650Z,-0.64
2023-01-17T09:25:13.750Z,-0.63
2023-01-17T09:27:14.824Z,-0.6
2023-01-17T09:28:14.830Z,-0.61
2023-01-17T09:29:14.964Z,-0.61
2023-01-17T09:30:15.426Z,-0.62
2023-01-17T09:31:17.393Z,-0.55
2023-01-17T09:32:14.864Z,-0.55
2023-01-17T09:33:15.513Z,-0.57
2023-01-17T09:34:14.893Z,-0.62
2023-01-17T09:35:15.086Z,-0.59
2023-01-17T09:36:15.436Z,-0.62
2023-01-17T09:37:14.916Z,-0.61
2023-01-17T09:38:14.949Z,-0.63
2023-01-17T09:39:15.143Z,-0.62
2023-01-17T09:40:18.138Z,-0.62
2023-01-17T09:45:29.819Z,-0.64
2023-01-17T09:46:29.288Z,-0.61
2023-01-17T09:49:36.610Z,-0.59
2023-01-17T09:50:41.827Z,-0.62
2023-01-17T09:51:33.141Z,-0.6
2023-01-17T09:52:33.186Z,-0.61
2023-01-17T09:53:34.919Z,-0.62
2023-01-17T09:54:38.918Z,-0.6
2023-01-17T09:55:39.919Z,-0.62
2023-01-17T09:56:40.057Z,-0.61
2023-01-17T09:57:40.832Z,-0.6
2023-01-17T09:58:44.671Z,-0.57
2023-01-17T10:00:02.377Z,-0.55
2023-01-17T10:13:28.859Z,-0.48
2023-01-17T10:15:41.376Z,-0.49
2023-01-17T10:20:52.652Z,-0.5
2023-01-17T10:26:57.534Z,-0.48
2023-01-17T10:27:58.155Z,-0.52
2023-01-17T10:29:00.620Z,-0.46
2023-01-17T10:29:57.168Z,-0.48
2023-01-17T10:32:00.813Z,-0.48
2023-01-17T10:33:01.848Z,-0.42
2023-01-17T10:35:11.179Z,-0.44
2023-01-17T10:36:12.970Z,-0.4
2023-01-17T10:38:14.419Z,-0.41
2023-01-17T10:39:19.053Z,-0.39
2023-01-17T10:40:24.668Z,-0.38
2023-01-17T10:41:28.891Z,-0.37
2023-01-17T10:42:26.599Z,-0.41
2023-01-17T10:45:34.076Z,-0.38
2023-01-17T10:47:34.114Z,-0.29
2023-01-17T10:49:32.600Z,-0.33
2023-01-17T10:50:40.306Z,-0.33
2023-01-17T10:52:41.417Z,-0.31
2023-01-17T10:56:42.847Z,-0.24
2023-01-17T10:57:44.134Z,-0.26
2023-01-17T10:58:42.959Z,-0.28
2023-01-17T10:59:42.877Z,-0.27
2023-01-17T11:01:43.917Z,-0.23
2023-01-17T11:02:47.494Z,-0.28
2023-01-17T11:03:48.133Z,-0.27
2023-01-17T11:04:47.177Z,-0.26
2023-01-17T11:05:44.395Z,-0.22
2023-01-17T11:06:57.607Z,-0.23
2023-01-17T11:07:56.620Z,-0.22
2023-01-17T11:08:57.996Z,-0.21
2023-01-17T11:09:50.941Z,-0.21
2023-01-17T11:10:50.937Z,-0.23
2023-01-17T11:11:50.755Z,-0.21
2023-01-17T11:12:49.723Z,-0.24
2023-01-17T11:13:50.692Z,-0.24
2023-01-17T11:14:56.608Z,-0.25
2023-01-17T11:15:55.343Z,-0.24
2023-01-17T11:17:03.798Z,-0.21
2023-01-17T11:18:06.085Z,-0.18
2023-01-17T11:19:06.469Z,-0.19
2023-01-17T11:20:08.838Z,-0.22
2023-01-17T11:22:05.046Z,-0.19
2023-01-17T11:26:12.469Z,-0.22
2023-01-17T11:30:23.054Z,-0.2
2023-01-17T11:31:24.607Z,-0.15
2023-01-17T11:32:32.900Z,-0.23
2023-01-17T11:34:26.568Z,-0.18
2023-01-17T11:35:27.608Z,-0.2
2023-01-17T11:36:29.032Z,-0.17
2023-01-17T11:37:25.823Z,-0.13
2023-01-17T11:38:26.085Z,-0.2
2023-01-17T11:39:25.948Z,-0.19
2023-01-17T11:41:26.592Z,-0.19
2023-01-17T11:43:27.868Z,-0.14
2023-01-17T11:44:32.250Z,-0.18
2023-01-17T11:45:29.980Z,-0.14
2023-01-17T11:46:28.834Z,-0.09
2023-01-17T11:47:28.621Z,-0.11
2023-01-17T11:48:33.385Z,-0.11
2023-01-17T11:49:29.608Z,-0.1
2023-01-17T11:50:29.664Z,-0.09
2023-01-17T11:52:33.439Z,0.02
2023-01-17T11:53:33.312Z,-0.02
2023-01-17T11:54:33.031Z,-0.05
2023-01-17T11:55:31.969Z,-0.04
2023-01-17T11:56:33.302Z,-0.03
2023-01-17T11:57:34.840Z,0
2023-01-17T11:58:36.531Z,-0.01
2023-01-17T11:59:37.002Z,0.02
2023-01-17T12:10:04.422Z,-0.01
2023-01-17T12:14:14.614Z,-0.05
2023-01-17T12:29:43.613Z,-0.01
2023-01-17T12:34:52.898Z,0
2023-01-17T12:36:56.363Z,0.01
2023-01-17T12:38:05.514Z,0.05
2023-01-17T12:39:00.898Z,0.02
2023-01-17T12:40:00.489Z,0.01
2023-01-17T12:41:00.799Z,0.03
2023-01-17T12:42:01.617Z,0.04
2023-01-17T12:44:00.606Z,0.01
2023-01-17T12:45:05.611Z,0.02
2023-01-17T12:46:05.302Z,0.03
2023-01-17T12:47:03.414Z,0.05
2023-01-17T12:48:05.543Z,0.04
2023-01-17T12:50:08.030Z,0.06
2023-01-17T12:51:08.043Z,0.06
2023-01-17T12:52:12.774Z,0.02
2023-01-17T12:54:25.123Z,0.03
2023-01-17T12:55:18.076Z,0.02
2023-01-17T12:58:21.133Z,0
2023-01-17T13:00:20.162Z,0.01
2023-01-17T13:03:29.933Z,0.01
2023-01-17T13:05:37.721Z,0.02
2023-01-17T13:08:45.555Z,0.04
2023-01-17T13:09:48.385Z,0.02
2023-01-17T13:10:51.004Z,0.03
2023-01-17T13:11:55.075Z,0.05
2023-01-17T13:12:52.519Z,0.05
2023-01-17T13:13:51.294Z,0.07
2023-01-17T13:14:51.325Z,0.04
2023-01-17T13:17:00.721Z,0.06
2023-01-17T13:18:04.540Z,0.06
2023-01-17T13:19:06.938Z,0.08
2023-01-17T13:20:14.053Z,0.05
2023-01-17T13:21:17.107Z,0.07
2023-01-17T13:22:10.636Z,0.04
2023-01-17T13:24:18.699Z,0.09
2023-01-17T13:25:28.224Z,0.08
2023-01-17T13:31:44.774Z,0.08
2023-01-17T13:32:52.429Z,0.06
2023-01-17T13:44:04.939Z,0.08
2023-01-17T13:46:08.108Z,0.06
2023-01-17T13:51:19.086Z,0.12
2023-01-17T13:52:31.011Z,0.1
2023-01-17T13:54:34.147Z,0.09
2023-01-17T13:56:27.390Z,0.08
2023-01-17T13:59:31.775Z,0.07
2023-01-17T14:01:49.483Z,0.09
2023-01-17T14:02:42.440Z,0.08
2023-01-17T14:05:46.804Z,0.06
2023-01-17T14:06:44.869Z,0.08
2023-01-17T14:08:44.800Z,0.09
2023-01-17T14:09:50.881Z,0.08
2023-01-17T14:10:49.511Z,0.07
2023-01-17T14:12:48.615Z,0.08
2023-01-17T14:13:47.721Z,0.08
2023-01-17T14:14:49.246Z,0.07
2023-01-17T14:15:49.554Z,0.08
2023-01-17T14:16:47.782Z,0.05
2023-01-17T14:17:50.188Z,0.06
2023-01-17T14:18:48.333Z,0.06
2023-01-17T14:19:52.066Z,0.08
2023-01-17T14:20:50.507Z,0.06
2023-01-17T14:21:48.847Z,0.06
2023-01-17T14:22:52.077Z,0.04
2023-01-17T14:23:51.617Z,0.01
2023-01-17T14:25:00.100Z,0.05
2023-01-17T14:25:52.773Z,0.04
2023-01-17T14:26:55.145Z,0.05
2023-01-17T14:27:54.227Z,0.05
2023-01-17T14:28:52.298Z,0.04
2023-01-17T14:29:54.760Z,0.07
2023-01-17T14:30:52.809Z,0.06
2023-01-17T14:31:59.505Z,0.08
2023-01-17T14:35:04.221Z,0.09
2023-01-17T14:38:15.825Z,0.09
2023-01-17T14:40:15.528Z,0.14
2023-01-17T14:41:18.927Z,0.14
2023-01-17T14:42:17.614Z,0.13
2023-01-17T14:43:18.427Z,0.12
2023-01-17T14:44:15.766Z,0.12
2023-01-17T14:45:20.489Z,0.14
2023-01-17T14:46:20.913Z,0.16
2023-01-17T14:47:17.702Z,0.14
2023-01-17T14:48:18.844Z,0.16
2023-01-17T14:49:23.619Z,0.14
2023-01-17T14:50:24.625Z,0.18
2023-01-17T14:51:22.064Z,0.16
2023-01-17T14:52:21.526Z,0.19
2023-01-17T14:53:25.013Z,0.18
2023-01-17T14:54:22.072Z,0.17
2023-01-17T14:55:21.771Z,0.17
2023-01-17T14:56:22.261Z,0.18
2023-01-17T14:57:25.867Z,0.18
2023-01-17T14:58:24.294Z,0.16
2023-01-17T14:59:22.663Z,0.16
2023-01-17T15:00:23.698Z,0.17
2023-01-17T15:01:23.071Z,0.16
2023-01-17T15:02:23.395Z,0.2
2023-01-17T15:03:22.724Z,0.2
2023-01-17T15:04:24.727Z,0.19
2023-01-17T15:05:24.408Z,0.19
2023-01-17T15:06:24.431Z,0.25
2023-01-17T15:07:23.173Z,0.21
2023-01-17T15:08:24.836Z,0.24
2023-01-17T15:09:25.252Z,0.2
2023-01-17T15:10:28.214Z,0.21
2023-01-17T15:11:29.345Z,0.21
2023-01-17T15:12:26.066Z,0.2
2023-01-17T15:13:43.407Z,0.24
2023-01-17T15:14:28.771Z,0.27
2023-01-17T15:15:29.785Z,0.25
2023-01-17T15:16:27.297Z,0.25
2023-01-17T15:17:26.295Z,0.27
2023-01-17T15:18:26.797Z,0.28
2023-01-17T15:19:26.025Z,0.26
2023-01-17T15:20:26.558Z,0.28
2023-01-17T15:21:28.057Z,0.24
2023-01-17T15:22:26.489Z,0.24
2023-01-17T15:23:27.686Z,0.26
2023-01-17T15:24:26.781Z,0.26
2023-01-17T15:25:26.774Z,0.29
2023-01-17T15:26:28.026Z,0.25
2023-01-17T15:27:26.608Z,0.28
2023-01-17T15:28:26.458Z,0.27
2023-01-17T15:29:28.046Z,0.28
2023-01-17T15:30:26.255Z,0.27
2023-01-17T15:32:29.256Z,0.28
2023-01-17T15:34:32.631Z,0.32
2023-01-17T15:35:31.127Z,0.3
2023-01-17T15:36:31.464Z,0.28
2023-01-17T15:37:33.164Z,0.33
2023-01-17T15:38:38.559Z,0.33
2023-01-17T15:39:39.537Z,0.31
2023-01-17T15:40:41.951Z,0.3
2023-01-17T15:41:39.478Z,0.3
2023-01-17T15:42:42.136Z,0.3
2023-01-17T15:43:40.113Z,0.32
2023-01-17T15:44:48.050Z,0.32
2023-01-17T15:45:40.248Z,0.31
2023-01-17T15:46:44.055Z,0.31
2023-01-17T15:47:40.286Z,0.3
2023-01-17T15:48:42.282Z,0.31
2023-01-17T15:49:49.714Z,0.31
2023-01-17T15:50:40.980Z,0.31
2023-01-17T15:51:45.230Z,0.33
2023-01-17T15:52:47.881Z,0.33
2023-01-17T15:53:44.225Z,0.34
2023-01-17T15:54:45.854Z,0.33
2023-01-17T15:55:45.250Z,0.33
2023-01-17T15:56:44.142Z,0.33